sensor_id;sensor_type;location;lat;lon;timestamp;P1;durP1;ratioP1;P2;durP2;ratioP2
36989;SDS011;22898;52.102;5.776;2024-01-16T00:01:09;12.57;;;1.77;;
36989;SDS011;22898;52.102;5.776;2024-01-16T00:03:35;9.82;;;1.48;;
36989;SDS011;22898;52.102;5.776;2024-01-16T00:06:02;6.57;;;1.05;;
36989;SDS011;22898;52.102;5.776;2024-01-16T00:08:29;1.63;;;0.80;;
36989;SDS011;22898;52.102;5.776;2024-01-16T00:10:54;2.15;;;1.10;;
36989;SDS011;22898;52.102;5.776;2024-01-16T00:13:20;1.50;;;0.90;;
36989;SDS011;22898;52.102;5.776;2024-01-16T00:15:46;2.00;;;0.88;;
36989;SDS011;22898;52.102;5.776;2024-01-16T00:18:11;3.92;;;0.98;;
36989;SDS011;22898;52.102;5.776;2024-01-16T00:20:37;1.42;;;0.95;;
36989;SDS011;22898;52.102;5.776;2024-01-16T00:23:03;5.55;;;2.38;;
36989;SDS011;22898;52.102;5.776;2024-01-16T00:25:28;8.82;;;1.15;;
36989;SDS011;22898;52.102;5.776;2024-01-16T00:27:54;8.98;;;1.25;;
36989;SDS011;22898;52.102;5.776;2024-01-16T00:30:20;2.15;;;1.02;;
36989;SDS011;22898;52.102;5.776;2024-01-16T00:32:45;3.05;;;1.52;;
36989;SDS011;22898;52.102;5.776;2024-01-16T00:35:11;1.52;;;0.73;;
36989;SDS011;22898;52.102;5.776;2024-01-16T00:37:37;4.05;;;0.68;;
36989;SDS011;22898;52.102;5.776;2024-01-16T00:40:03;1.65;;;0.95;;
36989;SDS011;22898;52.102;5.776;2024-01-16T00:42:30;3.63;;;0.75;;
36989;SDS011;22898;52.102;5.776;2024-01-16T00:44:56;2.08;;;1.10;;
36989;SDS011;22898;52.102;5.776;2024-01-16T00:47:22;8.80;;;1.73;;
36989;SDS011;22898;52.102;5.776;2024-01-16T00:49:48;2.63;;;0.98;;
36989;SDS011;22898;52.102;5.776;2024-01-16T00:52:14;2.17;;;0.70;;
36989;SDS011;22898;52.102;5.776;2024-01-16T00:54:40;0.85;;;0.45;;
36989;SDS011;22898;52.102;5.776;2024-01-16T00:57:07;2.50;;;1.08;;
36989;SDS011;22898;52.102;5.776;2024-01-16T00:59:32;5.82;;;1.05;;
36989;SDS011;22898;52.102;5.776;2024-01-16T01:01:58;3.67;;;1.48;;
36989;SDS011;22898;52.102;5.776;2024-01-16T01:04:24;8.57;;;1.20;;
36989;SDS011;22898;52.102;5.776;2024-01-16T01:06:49;2.58;;;0.75;;
36989;SDS011;22898;52.102;5.776;2024-01-16T01:09:16;0.70;;;0.70;;
36989;SDS011;22898;52.102;5.776;2024-01-16T01:11:42;0.75;;;0.60;;
36989;SDS011;22898;52.102;5.776;2024-01-16T01:14:07;3.42;;;1.40;;
36989;SDS011;22898;52.102;5.776;2024-01-16T01:16:33;5.05;;;0.73;;
36989;SDS011;22898;52.102;5.776;2024-01-16T01:19:00;7.18;;;1.48;;
36989;SDS011;22898;52.102;5.776;2024-01-16T01:21:25;6.80;;;1.42;;
36989;SDS011;22898;52.102;5.776;2024-01-16T01:23:51;1.35;;;0.93;;
36989;SDS011;22898;52.102;5.776;2024-01-16T01:26:17;3.08;;;0.65;;
36989;SDS011;22898;52.102;5.776;2024-01-16T01:28:45;1.05;;;0.50;;
36989;SDS011;22898;52.102;5.776;2024-01-16T01:31:11;2.42;;;1.35;;
36989;SDS011;22898;52.102;5.776;2024-01-16T01:33:37;5.20;;;0.80;;
36989;SDS011;22898;52.102;5.776;2024-01-16T01:36:03;2.13;;;1.02;;
36989;SDS011;22898;52.102;5.776;2024-01-16T01:38:29;0.80;;;0.60;;
36989;SDS011;22898;52.102;5.776;2024-01-16T01:40:54;8.93;;;1.20;;
36989;SDS011;22898;52.102;5.776;2024-01-16T01:43:21;1.50;;;0.82;;
36989;SDS011;22898;52.102;5.776;2024-01-16T01:46:31;1.00;;;0.82;;
36989;SDS011;22898;52.102;5.776;2024-01-16T01:48:38;5.25;;;0.90;;
36989;SDS011;22898;52.102;5.776;2024-01-16T01:51:06;1.45;;;0.80;;
36989;SDS011;22898;52.102;5.776;2024-01-16T01:53:32;0.98;;;0.63;;
36989;SDS011;22898;52.102;5.776;2024-01-16T01:56:01;4.95;;;0.70;;
36989;SDS011;22898;52.102;5.776;2024-01-16T01:58:36;3.45;;;1.55;;
36989;SDS011;22898;52.102;5.776;2024-01-16T02:01:03;1.23;;;0.77;;
36989;SDS011;22898;52.102;5.776;2024-01-16T02:03:32;4.57;;;1.00;;
36989;SDS011;22898;52.102;5.776;2024-01-16T02:06:04;1.20;;;0.80;;
36989;SDS011;22898;52.102;5.776;2024-01-16T02:08:30;0.95;;;0.65;;
36989;SDS011;22898;52.102;5.776;2024-01-16T02:10:57;1.95;;;0.98;;
36989;SDS011;22898;52.102;5.776;2024-01-16T02:13:23;1.20;;;0.80;;
36989;SDS011;22898;52.102;5.776;2024-01-16T02:15:49;0.75;;;0.60;;
36989;SDS011;22898;52.102;5.776;2024-01-16T02:18:16;6.93;;;1.58;;
36989;SDS011;22898;52.102;5.776;2024-01-16T02:20:42;1.83;;;0.63;;
36989;SDS011;22898;52.102;5.776;2024-01-16T02:23:08;5.80;;;1.23;;
36989;SDS011;22898;52.102;5.776;2024-01-16T02:25:36;2.03;;;1.05;;
36989;SDS011;22898;52.102;5.776;2024-01-16T02:28:02;1.45;;;0.50;;
36989;SDS011;22898;52.102;5.776;2024-01-16T02:30:28;5.05;;;0.98;;
36989;SDS011;22898;52.102;5.776;2024-01-16T02:32:54;4.25;;;0.80;;
36989;SDS011;22898;52.102;5.776;2024-01-16T02:35:19;0.60;;;0.60;;
36989;SDS011;22898;52.102;5.776;2024-01-16T02:37:45;2.42;;;0.55;;
36989;SDS011;22898;52.102;5.776;2024-01-16T02:40:11;2.47;;;0.98;;
36989;SDS011;22898;52.102;5.776;2024-01-16T02:42:36;2.72;;;0.93;;
36989;SDS011;22898;52.102;5.776;2024-01-16T02:45:03;0.50;;;0.50;;
36989;SDS011;22898;52.102;5.776;2024-01-16T02:47:29;1.83;;;1.33;;
36989;SDS011;22898;52.102;5.776;2024-01-16T02:49:55;0.25;;;0.25;;
36989;SDS011;22898;52.102;5.776;2024-01-16T02:52:21;2.30;;;0.77;;
36989;SDS011;22898;52.102;5.776;2024-01-16T02:54:46;0.38;;;0.38;;
36989;SDS011;22898;52.102;5.776;2024-01-16T02:57:12;0.63;;;0.57;;
36989;SDS011;22898;52.102;5.776;2024-01-16T02:59:38;0.30;;;0.30;;
36989;SDS011;22898;52.102;5.776;2024-01-16T03:02:03;0.63;;;0.32;;
36989;SDS011;22898;52.102;5.776;2024-01-16T03:04:29;0.40;;;0.40;;
36989;SDS011;22898;52.102;5.776;2024-01-16T03:06:55;0.40;;;0.40;;
36989;SDS011;22898;52.102;5.776;2024-01-16T03:09:21;1.77;;;0.50;;
36989;SDS011;22898;52.102;5.776;2024-01-16T03:11:47;1.88;;;0.35;;
36989;SDS011;22898;52.102;5.776;2024-01-16T03:14:13;5.65;;;1.05;;
36989;SDS011;22898;52.102;5.776;2024-01-16T03:16:39;0.47;;;0.47;;
36989;SDS011;22898;52.102;5.776;2024-01-16T03:19:05;1.90;;;0.77;;
36989;SDS011;22898;52.102;5.776;2024-01-16T03:21:30;0.85;;;0.73;;
36989;SDS011;22898;52.102;5.776;2024-01-16T03:23:56;0.93;;;0.60;;
36989;SDS011;22898;52.102;5.776;2024-01-16T03:26:21;0.55;;;0.55;;
36989;SDS011;22898;52.102;5.776;2024-01-16T03:28:47;0.60;;;0.60;;
36989;SDS011;22898;52.102;5.776;2024-01-16T03:31:13;0.30;;;0.30;;
36989;SDS011;22898;52.102;5.776;2024-01-16T03:33:39;4.57;;;0.82;;
36989;SDS011;22898;52.102;5.776;2024-01-16T03:36:07;0.55;;;0.50;;
36989;SDS011;22898;52.102;5.776;2024-01-16T03:38:35;0.40;;;0.40;;
36989;SDS011;22898;52.102;5.776;2024-01-16T03:41:02;0.80;;;0.60;;
36989;SDS011;22898;52.102;5.776;2024-01-16T03:43:28;0.57;;;0.57;;
36989;SDS011;22898;52.102;5.776;2024-01-16T03:45:56;0.75;;;0.50;;
36989;SDS011;22898;52.102;5.776;2024-01-16T03:48:22;0.52;;;0.47;;
36989;SDS011;22898;52.102;5.776;2024-01-16T03:50:48;1.08;;;0.75;;
36989;SDS011;22898;52.102;5.776;2024-01-16T03:53:14;0.45;;;0.45;;
36989;SDS011;22898;52.102;5.776;2024-01-16T03:55:40;1.55;;;1.20;;
36989;SDS011;22898;52.102;5.776;2024-01-16T03:58:05;1.25;;;1.13;;
36989;SDS011;22898;52.102;5.776;2024-01-16T04:00:31;0.82;;;0.73;;
36989;SDS011;22898;52.102;5.776;2024-01-16T04:02:57;1.17;;;0.88;;
36989;SDS011;22898;52.102;5.776;2024-01-16T04:05:22;0.45;;;0.45;;
36989;SDS011;22898;52.102;5.776;2024-01-16T04:07:48;0.60;;;0.30;;
36989;SDS011;22898;52.102;5.776;2024-01-16T04:10:14;1.88;;;0.63;;
36989;SDS011;22898;52.102;5.776;2024-01-16T04:12:39;0.85;;;0.47;;
36989;SDS011;22898;52.102;5.776;2024-01-16T04:15:05;2.55;;;0.95;;
36989;SDS011;22898;52.102;5.776;2024-01-16T04:17:31;1.00;;;0.57;;
36989;SDS011;22898;52.102;5.776;2024-01-16T04:19:57;0.40;;;0.40;;
36989;SDS011;22898;52.102;5.776;2024-01-16T04:22:22;1.02;;;0.93;;
36989;SDS011;22898;52.102;5.776;2024-01-16T04:24:48;0.30;;;0.30;;
36989;SDS011;22898;52.102;5.776;2024-01-16T04:27:14;0.35;;;0.35;;
36989;SDS011;22898;52.102;5.776;2024-01-16T04:29:40;1.65;;;0.82;;
36989;SDS011;22898;52.102;5.776;2024-01-16T04:32:05;2.40;;;0.77;;
36989;SDS011;22898;52.102;5.776;2024-01-16T04:34:31;0.38;;;0.38;;
36989;SDS011;22898;52.102;5.776;2024-01-16T04:36:56;2.08;;;0.63;;
36989;SDS011;22898;52.102;5.776;2024-01-16T04:39:22;0.85;;;0.45;;
36989;SDS011;22898;52.102;5.776;2024-01-16T04:41:48;0.50;;;0.50;;
36989;SDS011;22898;52.102;5.776;2024-01-16T04:44:14;3.60;;;0.85;;
36989;SDS011;22898;52.102;5.776;2024-01-16T04:46:40;0.50;;;0.50;;
36989;SDS011;22898;52.102;5.776;2024-01-16T04:49:05;0.60;;;0.60;;
36989;SDS011;22898;52.102;5.776;2024-01-16T04:51:31;2.85;;;0.90;;
36989;SDS011;22898;52.102;5.776;2024-01-16T04:53:57;1.05;;;0.70;;
36989;SDS011;22898;52.102;5.776;2024-01-16T04:56:22;0.90;;;0.60;;
36989;SDS011;22898;52.102;5.776;2024-01-16T04:58:48;1.20;;;0.77;;
36989;SDS011;22898;52.102;5.776;2024-01-16T05:01:13;2.30;;;1.30;;
36989;SDS011;22898;52.102;5.776;2024-01-16T05:03:39;1.20;;;0.80;;
36989;SDS011;22898;52.102;5.776;2024-01-16T05:06:05;3.65;;;1.55;;
36989;SDS011;22898;52.102;5.776;2024-01-16T05:08:49;1.85;;;0.95;;
36989;SDS011;22898;52.102;5.776;2024-01-16T05:11:14;1.42;;;1.13;;
36989;SDS011;22898;52.102;5.776;2024-01-16T05:13:40;1.60;;;1.13;;
36989;SDS011;22898;52.102;5.776;2024-01-16T05:16:05;1.52;;;1.05;;
36989;SDS011;22898;52.102;5.776;2024-01-16T05:18:31;1.70;;;1.42;;
36989;SDS011;22898;52.102;5.776;2024-01-16T05:21:00;3.70;;;1.20;;
36989;SDS011;22898;52.102;5.776;2024-01-16T05:23:27;1.05;;;1.00;;
36989;SDS011;22898;52.102;5.776;2024-01-16T05:25:53;1.42;;;1.20;;
36989;SDS011;22898;52.102;5.776;2024-01-16T05:28:18;2.90;;;1.23;;
36989;SDS011;22898;52.102;5.776;2024-01-16T05:30:44;1.70;;;1.38;;
36989;SDS011;22898;52.102;5.776;2024-01-16T05:33:09;5.07;;;1.95;;
36989;SDS011;22898;52.102;5.776;2024-01-16T05:35:35;3.90;;;1.33;;
36989;SDS011;22898;52.102;5.776;2024-01-16T05:38:01;2.50;;;1.58;;
36989;SDS011;22898;52.102;5.776;2024-01-16T05:40:28;1.85;;;1.50;;
36989;SDS011;22898;52.102;5.776;2024-01-16T05:42:53;2.88;;;1.65;;
36989;SDS011;22898;52.102;5.776;2024-01-16T05:45:20;5.60;;;1.60;;
36989;SDS011;22898;52.102;5.776;2024-01-16T05:47:46;1.60;;;1.10;;
36989;SDS011;22898;52.102;5.776;2024-01-16T05:50:11;2.58;;;1.30;;
36989;SDS011;22898;52.102;5.776;2024-01-16T05:52:37;1.75;;;1.40;;
36989;SDS011;22898;52.102;5.776;2024-01-16T05:55:03;1.88;;;1.35;;
36989;SDS011;22898;52.102;5.776;2024-01-16T05:57:30;0.93;;;0.93;;
36989;SDS011;22898;52.102;5.776;2024-01-16T05:59:58;1.52;;;1.20;;
36989;SDS011;22898;52.102;5.776;2024-01-16T06:02:24;6.07;;;1.45;;
36989;SDS011;22898;52.102;5.776;2024-01-16T06:04:49;2.25;;;1.60;;
36989;SDS011;22898;52.102;5.776;2024-01-16T06:07:16;3.40;;;1.23;;
36989;SDS011;22898;52.102;5.776;2024-01-16T06:09:41;1.88;;;1.17;;
36989;SDS011;22898;52.102;5.776;2024-01-16T06:12:07;2.22;;;1.25;;
36989;SDS011;22898;52.102;5.776;2024-01-16T06:14:33;2.55;;;1.38;;
36989;SDS011;22898;52.102;5.776;2024-01-16T06:16:59;4.85;;;1.77;;
36989;SDS011;22898;52.102;5.776;2024-01-16T06:19:25;2.58;;;1.35;;
36989;SDS011;22898;52.102;5.776;2024-01-16T06:21:51;3.65;;;1.38;;
36989;SDS011;22898;52.102;5.776;2024-01-16T06:24:17;3.40;;;1.50;;
36989;SDS011;22898;52.102;5.776;2024-01-16T06:26:42;2.05;;;1.55;;
36989;SDS011;22898;52.102;5.776;2024-01-16T06:29:08;1.63;;;1.05;;
36989;SDS011;22898;52.102;5.776;2024-01-16T06:31:34;2.85;;;1.60;;
36989;SDS011;22898;52.102;5.776;2024-01-16T06:34:00;1.98;;;1.08;;
36989;SDS011;22898;52.102;5.776;2024-01-16T06:36:25;2.08;;;1.42;;
36989;SDS011;22898;52.102;5.776;2024-01-16T06:38:51;1.60;;;1.27;;
36989;SDS011;22898;52.102;5.776;2024-01-16T06:41:17;2.55;;;1.70;;
36989;SDS011;22898;52.102;5.776;2024-01-16T06:43:42;12.30;;;2.10;;
36989;SDS011;22898;52.102;5.776;2024-01-16T06:46:08;7.07;;;1.77;;
36989;SDS011;22898;52.102;5.776;2024-01-16T06:48:37;2.88;;;1.70;;
36989;SDS011;22898;52.102;5.776;2024-01-16T06:51:03;8.50;;;1.60;;
36989;SDS011;22898;52.102;5.776;2024-01-16T06:53:29;4.03;;;1.75;;
36989;SDS011;22898;52.102;5.776;2024-01-16T06:55:55;1.63;;;1.20;;
36989;SDS011;22898;52.102;5.776;2024-01-16T06:58:21;2.45;;;1.73;;
36989;SDS011;22898;52.102;5.776;2024-01-16T07:00:47;4.22;;;2.22;;
36989;SDS011;22898;52.102;5.776;2024-01-16T07:03:13;3.60;;;1.80;;
36989;SDS011;22898;52.102;5.776;2024-01-16T07:05:39;7.10;;;1.83;;
36989;SDS011;22898;52.102;5.776;2024-01-16T07:08:08;3.80;;;2.03;;
36989;SDS011;22898;52.102;5.776;2024-01-16T07:10:34;11.88;;;1.85;;
36989;SDS011;22898;52.102;5.776;2024-01-16T07:13:00;2.00;;;1.30;;
36989;SDS011;22898;52.102;5.776;2024-01-16T07:15:26;7.97;;;1.80;;
36989;SDS011;22898;52.102;5.776;2024-01-16T07:17:52;1.73;;;1.33;;
36989;SDS011;22898;52.102;5.776;2024-01-16T07:20:18;2.95;;;2.03;;
36989;SDS011;22898;52.102;5.776;2024-01-16T07:22:43;8.75;;;1.90;;
36989;SDS011;22898;52.102;5.776;2024-01-16T07:25:09;6.97;;;2.08;;
36989;SDS011;22898;52.102;5.776;2024-01-16T07:27:35;4.28;;;2.05;;
36989;SDS011;22898;52.102;5.776;2024-01-16T07:30:01;4.18;;;2.40;;
36989;SDS011;22898;52.102;5.776;2024-01-16T07:32:29;3.00;;;2.10;;
36989;SDS011;22898;52.102;5.776;2024-01-16T07:34:55;5.22;;;2.58;;
36989;SDS011;22898;52.102;5.776;2024-01-16T07:37:20;2.72;;;1.83;;
36989;SDS011;22898;52.102;5.776;2024-01-16T07:39:46;3.25;;;2.13;;
36989;SDS011;22898;52.102;5.776;2024-01-16T07:42:12;7.68;;;3.63;;
36989;SDS011;22898;52.102;5.776;2024-01-16T07:44:37;5.13;;;2.30;;
36989;SDS011;22898;52.102;5.776;2024-01-16T07:47:03;10.07;;;2.33;;
36989;SDS011;22898;52.102;5.776;2024-01-16T07:49:29;3.28;;;1.50;;
36989;SDS011;22898;52.102;5.776;2024-01-16T07:51:55;3.70;;;2.78;;
36989;SDS011;22898;52.102;5.776;2024-01-16T07:54:20;5.57;;;2.45;;
36989;SDS011;22898;52.102;5.776;2024-01-16T07:56:46;4.88;;;2.45;;
36989;SDS011;22898;52.102;5.776;2024-01-16T07:59:12;5.43;;;2.40;;
36989;SDS011;22898;52.102;5.776;2024-01-16T08:01:37;5.03;;;1.92;;
36989;SDS011;22898;52.102;5.776;2024-01-16T08:04:03;3.35;;;2.20;;
36989;SDS011;22898;52.102;5.776;2024-01-16T08:06:29;7.45;;;2.05;;
36989;SDS011;22898;52.102;5.776;2024-01-16T08:08:55;2.63;;;1.80;;
36989;SDS011;22898;52.102;5.776;2024-01-16T08:11:20;3.00;;;1.98;;
36989;SDS011;22898;52.102;5.776;2024-01-16T08:13:46;4.70;;;2.15;;
36989;SDS011;22898;52.102;5.776;2024-01-16T08:16:12;6.28;;;2.13;;
36989;SDS011;22898;52.102;5.776;2024-01-16T08:18:38;3.72;;;1.95;;
36989;SDS011;22898;52.102;5.776;2024-01-16T08:21:03;5.10;;;3.00;;
36989;SDS011;22898;52.102;5.776;2024-01-16T08:23:29;7.32;;;2.13;;
36989;SDS011;22898;52.102;5.776;2024-01-16T08:25:54;4.50;;;2.33;;
36989;SDS011;22898;52.102;5.776;2024-01-16T08:28:20;13.63;;;2.13;;
36989;SDS011;22898;52.102;5.776;2024-01-16T08:30:49;4.53;;;2.40;;
36989;SDS011;22898;52.102;5.776;2024-01-16T08:33:14;3.08;;;2.08;;
36989;SDS011;22898;52.102;5.776;2024-01-16T08:35:40;6.13;;;2.50;;
36989;SDS011;22898;52.102;5.776;2024-01-16T08:38:06;5.80;;;1.92;;
36989;SDS011;22898;52.102;5.776;2024-01-16T08:40:31;5.50;;;2.13;;
36989;SDS011;22898;52.102;5.776;2024-01-16T08:42:57;7.32;;;2.03;;
36989;SDS011;22898;52.102;5.776;2024-01-16T08:45:23;10.13;;;2.85;;
36989;SDS011;22898;52.102;5.776;2024-01-16T08:47:50;8.13;;;2.53;;
36989;SDS011;22898;52.102;5.776;2024-01-16T08:50:16;4.35;;;2.13;;
36989;SDS011;22898;52.102;5.776;2024-01-16T08:52:42;9.85;;;3.40;;
36989;SDS011;22898;52.102;5.776;2024-01-16T08:55:07;5.22;;;2.10;;
36989;SDS011;22898;52.102;5.776;2024-01-16T08:57:36;11.55;;;3.35;;
36989;SDS011;22898;52.102;5.776;2024-01-16T09:00:03;5.95;;;2.08;;
36989;SDS011;22898;52.102;5.776;2024-01-16T09:02:34;3.38;;;2.47;;
36989;SDS011;22898;52.102;5.776;2024-01-16T09:05:00;3.22;;;2.40;;
36989;SDS011;22898;52.102;5.776;2024-01-16T09:07:26;3.42;;;2.25;;
36989;SDS011;22898;52.102;5.776;2024-01-16T09:09:51;7.70;;;2.25;;
36989;SDS011;22898;52.102;5.776;2024-01-16T09:12:17;4.07;;;2.55;;
36989;SDS011;22898;52.102;5.776;2024-01-16T09:14:43;5.18;;;2.58;;
36989;SDS011;22898;52.102;5.776;2024-01-16T09:17:08;4.18;;;2.60;;
36989;SDS011;22898;52.102;5.776;2024-01-16T09:19:34;9.13;;;2.63;;
36989;SDS011;22898;52.102;5.776;2024-01-16T09:22:00;9.10;;;2.45;;
36989;SDS011;22898;52.102;5.776;2024-01-16T09:24:26;7.40;;;3.95;;
36989;SDS011;22898;52.102;5.776;2024-01-16T09:26:52;4.22;;;2.15;;
36989;SDS011;22898;52.102;5.776;2024-01-16T09:29:17;3.03;;;1.83;;
36989;SDS011;22898;52.102;5.776;2024-01-16T09:31:43;7.13;;;2.58;;
36989;SDS011;22898;52.102;5.776;2024-01-16T09:34:08;3.33;;;2.03;;
36989;SDS011;22898;52.102;5.776;2024-01-16T09:36:34;6.05;;;2.33;;
36989;SDS011;22898;52.102;5.776;2024-01-16T09:39:01;3.45;;;1.75;;
36989;SDS011;22898;52.102;5.776;2024-01-16T09:41:27;8.45;;;2.42;;
36989;SDS011;22898;52.102;5.776;2024-01-16T09:43:53;3.95;;;2.15;;
36989;SDS011;22898;52.102;5.776;2024-01-16T09:46:19;4.32;;;2.92;;
36989;SDS011;22898;52.102;5.776;2024-01-16T09:48:47;5.97;;;2.03;;
36989;SDS011;22898;52.102;5.776;2024-01-16T09:51:13;4.75;;;2.45;;
36989;SDS011;22898;52.102;5.776;2024-01-16T09:53:42;4.78;;;2.45;;
36989;SDS011;22898;52.102;5.776;2024-01-16T09:56:09;5.60;;;2.20;;
36989;SDS011;22898;52.102;5.776;2024-01-16T09:58:41;7.68;;;2.85;;
36989;SDS011;22898;52.102;5.776;2024-01-16T10:01:08;4.82;;;2.35;;
36989;SDS011;22898;52.102;5.776;2024-01-16T10:03:35;7.22;;;2.95;;
36989;SDS011;22898;52.102;5.776;2024-01-16T10:06:04;6.97;;;2.42;;
36989;SDS011;22898;52.102;5.776;2024-01-16T10:08:31;6.35;;;2.13;;
36989;SDS011;22898;52.102;5.776;2024-01-16T10:10:58;7.45;;;2.25;;
36989;SDS011;22898;52.102;5.776;2024-01-16T10:13:24;5.07;;;2.03;;
36989;SDS011;22898;52.102;5.776;2024-01-16T10:15:51;4.72;;;2.92;;
36989;SDS011;22898;52.102;5.776;2024-01-16T10:18:22;4.30;;;2.10;;
36989;SDS011;22898;52.102;5.776;2024-01-16T10:20:52;4.18;;;2.25;;
36989;SDS011;22898;52.102;5.776;2024-01-16T10:23:22;6.80;;;2.00;;
36989;SDS011;22898;52.102;5.776;2024-01-16T10:26:04;3.80;;;2.00;;
36989;SDS011;22898;52.102;5.776;2024-01-16T10:28:37;5.10;;;2.17;;
36989;SDS011;22898;52.102;5.776;2024-01-16T10:31:05;3.03;;;1.90;;
36989;SDS011;22898;52.102;5.776;2024-01-16T10:33:32;6.10;;;2.13;;
36989;SDS011;22898;52.102;5.776;2024-01-16T10:36:10;5.93;;;1.70;;
36989;SDS011;22898;52.102;5.776;2024-01-16T10:38:42;3.47;;;2.15;;
36989;SDS011;22898;52.102;5.776;2024-01-16T10:43:42;4.07;;;1.83;;
36989;SDS011;22898;52.102;5.776;2024-01-16T10:46:10;2.83;;;1.42;;
36989;SDS011;22898;52.102;5.776;2024-01-16T10:48:40;3.28;;;1.63;;
36989;SDS011;22898;52.102;5.776;2024-01-16T10:51:10;4.95;;;1.90;;
36989;SDS011;22898;52.102;5.776;2024-01-16T10:53:41;8.55;;;2.20;;
36989;SDS011;22898;52.102;5.776;2024-01-16T10:56:14;2.45;;;1.70;;
36989;SDS011;22898;52.102;5.776;2024-01-16T10:58:43;2.60;;;1.60;;
36989;SDS011;22898;52.102;5.776;2024-01-16T11:01:10;9.10;;;2.20;;
36989;SDS011;22898;52.102;5.776;2024-01-16T11:03:49;2.33;;;1.63;;
36989;SDS011;22898;52.102;5.776;2024-01-16T11:06:16;3.58;;;1.83;;
36989;SDS011;22898;52.102;5.776;2024-01-16T11:08:42;2.33;;;1.42;;
36989;SDS011;22898;52.102;5.776;2024-01-16T11:11:11;3.60;;;1.90;;
36989;SDS011;22898;52.102;5.776;2024-01-16T11:13:38;6.05;;;1.58;;
36989;SDS011;22898;52.102;5.776;2024-01-16T11:16:05;4.63;;;1.92;;
36989;SDS011;22898;52.102;5.776;2024-01-16T11:18:33;8.98;;;2.03;;
36989;SDS011;22898;52.102;5.776;2024-01-16T11:21:00;3.60;;;1.83;;
36989;SDS011;22898;52.102;5.776;2024-01-16T11:23:29;4.15;;;2.38;;
36989;SDS011;22898;52.102;5.776;2024-01-16T11:25:54;2.63;;;1.70;;
36989;SDS011;22898;52.102;5.776;2024-01-16T11:28:20;3.53;;;2.15;;
36989;SDS011;22898;52.102;5.776;2024-01-16T11:30:54;4.22;;;1.40;;
36989;SDS011;22898;52.102;5.776;2024-01-16T11:35:58;5.70;;;1.70;;
36989;SDS011;22898;52.102;5.776;2024-01-16T11:38:24;11.25;;;1.88;;
36989;SDS011;22898;52.102;5.776;2024-01-16T11:40:55;3.33;;;1.85;;
36989;SDS011;22898;52.102;5.776;2024-01-16T11:45:59;3.60;;;2.05;;
36989;SDS011;22898;52.102;5.776;2024-01-16T11:48:26;8.77;;;1.85;;
36989;SDS011;22898;52.102;5.776;2024-01-16T11:50:52;4.07;;;1.83;;
36989;SDS011;22898;52.102;5.776;2024-01-16T11:53:37;4.85;;;2.28;;
36989;SDS011;22898;52.102;5.776;2024-01-16T12:01:53;5.93;;;1.77;;
36989;SDS011;22898;52.102;5.776;2024-01-16T12:04:23;6.30;;;1.50;;
36989;SDS011;22898;52.102;5.776;2024-01-16T12:07:08;1.98;;;1.27;;
36989;SDS011;22898;52.102;5.776;2024-01-16T12:09:33;3.63;;;1.40;;
36989;SDS011;22898;52.102;5.776;2024-01-16T12:12:00;5.70;;;1.25;;
36989;SDS011;22898;52.102;5.776;2024-01-16T12:14:27;3.40;;;1.15;;
36989;SDS011;22898;52.102;5.776;2024-01-16T12:17:07;2.13;;;1.27;;
36989;SDS011;22898;52.102;5.776;2024-01-16T12:19:35;4.70;;;1.40;;
36989;SDS011;22898;52.102;5.776;2024-01-16T12:22:00;3.47;;;1.52;;
36989;SDS011;22898;52.102;5.776;2024-01-16T12:24:26;2.72;;;1.50;;
36989;SDS011;22898;52.102;5.776;2024-01-16T12:26:52;6.70;;;2.13;;
36989;SDS011;22898;52.102;5.776;2024-01-16T12:29:22;5.15;;;1.92;;
36989;SDS011;22898;52.102;5.776;2024-01-16T12:31:47;3.25;;;1.63;;
36989;SDS011;22898;52.102;5.776;2024-01-16T12:34:13;4.80;;;1.75;;
36989;SDS011;22898;52.102;5.776;2024-01-16T12:36:39;2.50;;;1.70;;
36989;SDS011;22898;52.102;5.776;2024-01-16T12:39:05;2.15;;;1.13;;
36989;SDS011;22898;52.102;5.776;2024-01-16T12:41:32;13.75;;;2.15;;
36989;SDS011;22898;52.102;5.776;2024-01-16T12:44:04;3.35;;;1.75;;
36989;SDS011;22898;52.102;5.776;2024-01-16T12:46:30;2.65;;;1.52;;
36989;SDS011;22898;52.102;5.776;2024-01-16T12:49:03;3.38;;;1.48;;
36989;SDS011;22898;52.102;5.776;2024-01-16T12:51:31;7.43;;;1.75;;
36989;SDS011;22898;52.102;5.776;2024-01-16T12:54:13;3.17;;;1.45;;
36989;SDS011;22898;52.102;5.776;2024-01-16T12:56:40;2.60;;;1.98;;
36989;SDS011;22898;52.102;5.776;2024-01-16T12:59:09;3.40;;;1.58;;
36989;SDS011;22898;52.102;5.776;2024-01-16T13:01:41;2.40;;;1.55;;
36989;SDS011;22898;52.102;5.776;2024-01-16T13:04:09;7.10;;;1.63;;
36989;SDS011;22898;52.102;5.776;2024-01-16T13:06:35;8.63;;;1.83;;
36989;SDS011;22898;52.102;5.776;2024-01-16T13:09:08;2.97;;;1.77;;
36989;SDS011;22898;52.102;5.776;2024-01-16T13:11:48;8.68;;;2.15;;
36989;SDS011;22898;52.102;5.776;2024-01-16T13:14:20;2.22;;;1.25;;
36989;SDS011;22898;52.102;5.776;2024-01-16T13:16:46;1.75;;;1.30;;
36989;SDS011;22898;52.102;5.776;2024-01-16T13:19:15;3.53;;;1.80;;
36989;SDS011;22898;52.102;5.776;2024-01-16T13:21:42;4.45;;;1.65;;
36989;SDS011;22898;52.102;5.776;2024-01-16T13:24:07;2.95;;;1.65;;
36989;SDS011;22898;52.102;5.776;2024-01-16T13:26:33;6.65;;;2.00;;
36989;SDS011;22898;52.102;5.776;2024-01-16T13:28:59;3.72;;;2.00;;
36989;SDS011;22898;52.102;5.776;2024-01-16T13:31:25;4.07;;;2.00;;
36989;SDS011;22898;52.102;5.776;2024-01-16T13:33:51;2.38;;;1.65;;
36989;SDS011;22898;52.102;5.776;2024-01-16T13:36:16;3.00;;;1.70;;
36989;SDS011;22898;52.102;5.776;2024-01-16T13:38:42;4.60;;;1.67;;
36989;SDS011;22898;52.102;5.776;2024-01-16T13:41:08;4.82;;;1.95;;
36989;SDS011;22898;52.102;5.776;2024-01-16T13:43:33;8.57;;;2.38;;
36989;SDS011;22898;52.102;5.776;2024-01-16T13:45:59;6.95;;;1.55;;
36989;SDS011;22898;52.102;5.776;2024-01-16T13:48:25;1.38;;;1.10;;
36989;SDS011;22898;52.102;5.776;2024-01-16T13:50:50;2.40;;;1.42;;
36989;SDS011;22898;52.102;5.776;2024-01-16T13:53:16;3.85;;;1.77;;
36989;SDS011;22898;52.102;5.776;2024-01-16T13:55:42;1.75;;;1.02;;
36989;SDS011;22898;52.102;5.776;2024-01-16T13:58:08;8.60;;;2.30;;
36989;SDS011;22898;52.102;5.776;2024-01-16T14:00:33;4.28;;;2.13;;
36989;SDS011;22898;52.102;5.776;2024-01-16T14:03:00;3.10;;;1.80;;
36989;SDS011;22898;52.102;5.776;2024-01-16T14:05:28;2.92;;;1.85;;
36989;SDS011;22898;52.102;5.776;2024-01-16T14:07:53;4.72;;;2.08;;
36989;SDS011;22898;52.102;5.776;2024-01-16T14:10:20;6.18;;;1.98;;
36989;SDS011;22898;52.102;5.776;2024-01-16T14:12:46;6.75;;;1.75;;
36989;SDS011;22898;52.102;5.776;2024-01-16T14:15:15;1.42;;;1.30;;
36989;SDS011;22898;52.102;5.776;2024-01-16T14:17:47;6.25;;;1.67;;
36989;SDS011;22898;52.102;5.776;2024-01-16T14:20:14;4.05;;;1.80;;
36989;SDS011;22898;52.102;5.776;2024-01-16T14:22:40;5.95;;;1.40;;
36989;SDS011;22898;52.102;5.776;2024-01-16T14:25:07;1.80;;;1.35;;
36989;SDS011;22898;52.102;5.776;2024-01-16T14:27:42;5.78;;;1.95;;
36989;SDS011;22898;52.102;5.776;2024-01-16T14:30:12;4.68;;;1.45;;
36989;SDS011;22898;52.102;5.776;2024-01-16T14:32:40;2.70;;;1.73;;
36989;SDS011;22898;52.102;5.776;2024-01-16T14:35:07;4.45;;;1.30;;
36989;SDS011;22898;52.102;5.776;2024-01-16T14:37:34;6.13;;;1.60;;
36989;SDS011;22898;52.102;5.776;2024-01-16T14:40:04;5.57;;;1.70;;
36989;SDS011;22898;52.102;5.776;2024-01-16T14:42:38;7.25;;;1.75;;
36989;SDS011;22898;52.102;5.776;2024-01-16T14:45:04;5.03;;;2.03;;
36989;SDS011;22898;52.102;5.776;2024-01-16T14:47:31;5.82;;;1.38;;
36989;SDS011;22898;52.102;5.776;2024-01-16T14:49:57;2.92;;;1.40;;
36989;SDS011;22898;52.102;5.776;2024-01-16T14:52:23;1.77;;;1.15;;
36989;SDS011;22898;52.102;5.776;2024-01-16T14:54:48;4.13;;;1.52;;
36989;SDS011;22898;52.102;5.776;2024-01-16T14:57:15;1.63;;;1.38;;
36989;SDS011;22898;52.102;5.776;2024-01-16T14:59:41;2.63;;;1.70;;